WEATHER DATA

YESTERDAY
Time Temp. Dewp. Hum. Wind dir Wind speed Wind gust Bar. 1h Prec. 24h Prec.
00:06 5.1 3.6 90 217 1.9 5 999.6 0.8080 0.2000
00:16 5 3.5 90 218 1.7 4.2 999.5 0.9090 0.3000
00:26 5 3.5 90 218 1.4 3.6 999.5 1.1110 0.5000
00:36 5 3.7 91 214 1.7 3.6 999.4 1.1110 0.7000
00:46 4.9 3.6 91 218 1.4 3.6 999.4 0.8080 0.7000
00:56 4.9 3.6 91 217 1.7 3.9 999.5 0.8080 0.9000
01:06 4.9 3.6 91 231 1.9 4.4 999.7 0.9090 1.2000
01:20 4.9 3.7 92 251 3.1 6.9 1000 1.3130 1.7000
01:31 4.9 3.7 92 270 2.5 4.4 1000 1.2120 1.8000
01:40 4.8 3.6 92 270 1.7 3.3 999.9 1.2120 1.9000
01:50 4.7 3.5 92 256 1.7 3.6 999.8 1.1110 1.9000
02:01 4.6 3.4 92 250 1.4 2.8 999.8 0.9090 1.9000
02:10 4.6 3.4 92 245 1.1 2.5 999.9 0.5050 1.9000
02:20 4.5 3.3 92 229 0.6 1.1 999.8 0.2020 1.9000
02:30 4.5 3.3 92 235 0.6 1.9 999.9 0.1010 1.9000
02:41 4.4 3.2 92 227 0.6 1.4 1000.1 0.0000 1.9000
02:51 4.4 3.2 92 236 0.6 1.7 1000.2 0.0000 1.9000
03:00 4.3 3.1 92 225 0.6 1.4 1000.2 0.0000 1.9000
03:11 4.2 3 92 235 0.6 1.7 1000.3 0.0000 1.9000
03:21 4.2 3 92 226 0.8 1.7 1000.3 0.0000 1.9000
03:31 4.1 2.9 92 225 0.6 1.1 1000.2 0.0000 1.9000
03:41 4.1 2.9 92 225 0.6 1.7 1000.2 0.0000 1.9000
03:51 4 2.8 92 222 0.6 1.9 1000.1 0.0000 1.9000
04:01 4 2.8 92 229 0.8 1.9 1000.1 0.0000 1.9000
04:11 4 3 93 227 0.6 1.7 1000 0.0000 1.9000
04:22 3.9 2.9 93 234 0.6 1.7 1000.1 0.0000 1.9000
04:31 3.9 2.9 93 228 0.8 2.2 1000.1 0.0000 1.9000
04:41 3.9 2.9 93 230 0.8 1.9 1000.1 0.0000 1.9000
04:51 3.9 2.9 93 232 0.8 2.2 1000 0.0000 1.9000
05:02 4 3 93 219 0.8 1.9 1000 0.0000 1.9000
05:11 4 3 93 209 0.8 2.2 1000.1 0.0000 1.9000
05:21 4 3 93 214 0.8 1.9 1000 0.0000 1.9000
05:32 4 3 93 229 1.1 2.2 999.8 0.0000 1.9000
05:42 4 3 93 232 1.1 2.8 999.6 0.1010 2.0000
05:51 4 3.1 94 233 0.8 2.5 999.7 0.1010 2.0000
06:01 4 3.1 94 213 0.8 2.2 999.8 0.1010 2.0000
06:12 3.9 3 94 217 1.1 2.8 999.6 0.1010 2.0000
06:22 3.9 3 94 219 0.8 2.2 999.6 0.1010 2.0000
06:31 3.9 3 94 230 0.8 2.2 999.6 0.0000 2.0000
06:42 3.9 3 94 242 1.1 2.2 999.8 0.0000 2.0000
07:02 3.9 3 94 234 1.1 3.1 999.7 0.0000 2.0000
07:12 4 3.1 94 227 0.8 1.7 999.6 0.0000 2.0000
07:32 4.1 3.2 94 221 0.8 2.2 999.6 0.0000 2.0000
07:42 4 3.1 94 216 1.1 3.3 999.5 0.0000 2.0000
08:02 3.9 3 94 215 1.1 2.5 999.4 0.0000 2.0000
08:12 3.9 3 94 207 0.8 2.2 999.5 0.0000 2.0000
08:22 3.9 3 94 208 0.8 2.8 999.5 0.0000 2.0000
08:32 3.9 3 94 210 0.8 1.9 999.5 0.0000 2.0000
08:42 3.9 3 94 207 0.8 2.2 999.5 0.0000 2.0000
08:52 3.9 3.2 95 204 0.8 1.9 999.5 0.0000 2.0000
09:03 3.9 3.2 95 202 0.6 1.9 999.5 0.0000 2.0000
09:12 3.9 3.2 95 206 0.8 1.9 999.5 0.0000 2.0000
09:22 3.9 3.2 95 223 0.8 2.5 999.6 0.0000 2.0000
09:33 3.9 3.2 95 212 0.6 1.9 999.6 0.0000 2.0000
09:43 3.9 3.2 95 201 0.6 1.4 999.6 0.0000 2.0000
09:52 4 3.3 95 220 0.6 1.7 999.6 0.0000 2.0000
10:02 4.2 3.5 95 212 0.8 2.2 999.5 0.0000 2.0000
10:13 4.2 3.5 95 210 0.6 1.1 999.4 0.0000 2.0000
10:22 4.4 3.7 95 233 0.6 1.4 999.4 0.0000 2.0000
10:33 4.5 3.8 95 262 1.1 2.5 999.5 0.3030 2.3000
10:43 4.5 3.8 95 240 1.9 4.4 999.3 1.0100 3.0000
10:54 4.5 3.8 95 253 1.9 3.9 999.4 1.1110 3.1000
11:03 4.5 3.8 95 266 2.5 4.7 999.5 1.3130 3.3000
11:13 4.5 3.8 95 261 2.2 5.8 999.6 1.5150 3.5000
11:24 4.3 3.4 94 286 2.5 4.4 999.8 1.8180 3.8000
11:34 3.9 3 94 270 2.5 5 999.8 1.4140 4.1000
11:43 3.6 2.6 93 270 1.7 3.1 999.8 1.2120 4.3000
11:54 3.4 2.5 94 250 1.7 3.6 999.6 1.4140 4.5000
12:04 3.4 2.7 95 237 1.1 2.2 999.5 1.2120 4.5000
12:13 3.4 2.7 95 245 1.1 2.2 999.6 0.8080 4.5000
12:23 3.4 2.7 95 251 1.7 2.8 999.7 0.8080 4.7000
12:34 3.4 2.7 95 247 1.7 3.3 999.7 0.6060 4.8000
12:44 3.4 2.7 95 255 2.5 4.4 999.9 0.4040 4.8000
12:53 3.3 2.4 94 259 2.8 5.3 1000 0.3030 4.8000
13:04 3.3 2.6 95 258 2.5 4.2 1000.1 0.3030 4.8000
13:14 3.3 2.4 94 260 3.1 5 1000.3 0.4040 5.1000
13:24 3.2 2.3 94 270 2.5 4.2 1000.5 0.3030 5.2000
13:34 3.1 2.4 95 270 2.8 5.3 1000.6 0.3030 5.2000
13:44 3.1 2.4 95 294 2.2 4.4 1000.8 0.3030 5.2000
13:54 3.2 2.5 95 295 1.9 3.6 1000.8 0.3030 5.2000
14:04 3.4 2.7 95 287 1.7 2.8 1001 0.3030 5.2000
14:14 3.5 2.9 96 287 1.9 3.3 1001.1 0.0000 5.2000
14:20 3.6 2.9 95 277 1.7 3.3 1001.4 0.0000 5.2000
15:34 2.9 2 94 265 2.2 3.9 1002.4 0.3030 5.5000
15:40 2.9 2 94 254 2.5 4.2 1002.4 0.1010 5.5000
15:51 3 2.1 94 251 2.2 4.2 1002.6 0.0000 5.5000
16:03 2.9 2 94 261 2.5 4.2 1003.1 0.0000 5.5000
16:51 2.6 1.6 93 262 2.2 4.7 1003.5 0.0000 5.5000
17:00 2.6 1.6 93 264 1.9 3.3 1003.9 0.0000 5.5000
17:21 2.5 1.5 93 257 1.9 3.6 1004 0.0000 5.5000
17:30 2.5 1.5 93 256 2.2 3.6 1004.3 0.0000 5.5000
17:44 2.3 1.3 93 255 2.2 3.3 1004.7 0.0000 5.5000
18:08 2.2 1.2 93 258 2.2 4.4 1004.9 0.0000 5.5000
18:16 2.2 1.3 94 270 2.2 4.7 1005.2 0.1010 5.6000
18:22 2.2 1.3 94 270 1.4 3.1 1005.6 0.1010 5.6000
18:43 2.2 1.3 94 298 1.7 4.4 1006 0.3030 5.8000
19:01 2 1 93 277 1.7 3.3 1005.9 0.3030 5.8000
19:11 1.8 0.8 93 270 1.1 2.8 1006.1 0.2020 5.8000
19:22 1.6 0.6 93 280 1.1 2.5 1006.4 0.2020 5.8000
19:27 1.6 0.6 93 250 1.7 2.2 1006.5 0.2020 5.8000
19:36 1.5 0.6 94 264 1.9 3.3 1007.2 0.1010 5.9000
20:10 1.3 0.4 94 270 2.5 6.1 1007.3 0.1010 5.9000
20:20 1.2 0.3 94 270 1.7 3.3 1007.4 0.1010 5.9000
20:28 1.1 0.2 94 252 1.9 3.1 1007.6 0.1010 5.9000
20:39 1 0.1 94 252 1.9 2.8 1007.9 0.1010 5.9000
20:46 1 0.1 94 255 1.7 3.1 1008.1 0.0000 5.9000
20:58 0.9 0 94 258 1.4 2.8 1008.2 0.0000 5.9000
21:08 0.8 0 94 257 1.7 3.1 1008.4 0.0000 5.9000
21:16 0.8 0 94 256 1.4 2.8 1008.6 0.0000 5.9000
21:30 0.8 0 94 257 1.7 3.3 1008.7 0.0000 5.9000
21:36 0.7 -0.1 94 261 1.7 2.5 1008.9 0.0000 5.9000
21:50 0.6 -0.2 94 264 1.7 3.3 1009.2 0.0000 5.9000
22:00 0.6 -0.2 94 270 1.7 2.8 1009.4 0.0000 5.9000
22:10 0.6 -0.1 95 270 1.9 4.2 1009.6 0.0000 5.9000
22:20 0.6 -0.1 95 260 2.2 4.7 1009.7 0.0000 5.9000
22:30 0.6 -0.1 95 260 2.2 3.6 1009.9 0.0000 5.9000
22:40 0.6 -0.1 95 255 2.2 3.3 1010.1 0.0000 5.9000
22:50 0.5 -0.2 95 259 1.9 3.6 1010.3 0.0000 5.9000
23:00 0.6 -0.1 95 258 1.9 3.1 1010.5 0.0000 5.9000
23:10 0.6 -0.1 95 258 1.9 2.5 1010.6 0.0000 5.9000
23:21 0.6 -0.1 95 260 1.9 3.1 1010.8 0.0000 5.9000
23:30 0.6 -0.1 95 258 1.9 3.6 1011 0.0000 5.9000
23:40 0.6 -0.1 95 264 1.9 3.3 1011.2 0.0000 5.9000
23:51 0.6 -0.1 95 264 1.9 3.9 1011.3 0.0000 5.9000

DAY STATISTIC

2019-01-17
TEMPERATURE
AVERAGE
3.2
HIGH
5.1
00:06
LOW
0.5
22:50
PRESSURE
AVERAGE
1002.3
HIGH
1011.3
23:51
LOW
999.3
10:43
DEWPOINT
AVERAGE
2.3
HIGH
3.8
10:33
LOW
-0.2
21:50
HUMIDITY
AVERAGE
94
HIGH
96
14:14
LOW
90
00:06
WIND SPEED
AVERAGE
1.5
HIGH
3.1
01:20
WIND GUST
AVERAGE
3.1
HIGH
6.9
01:20
WIND DIRECTION
PREVAILING
W
50.8%
N
0.0
NE
0.0
E
0.0
SE
0.0
S
2.4
SW
44.4
W
50.8
NW
2.4
PRECIPITATION
RAIN HOUR
1.8
RAIN DAY
5.9
TEMPERATURE (°C)
LOW
0.5
HIGH
5.1
AVERAGE
3.2
PRESSURE (hpa)
LOW
999.3
HIGH
1011.3
AVERAGE
1002.3
DEVICE